createdAt,value
2023-01-17T00:00:01.732Z,26.90
2023-01-17T00:05:23.972Z,23.40
2023-01-17T00:10:28.276Z,22.03
2023-01-17T00:15:31.718Z,22.20
2023-01-17T00:20:53.517Z,20.83
2023-01-17T00:26:05.423Z,20.07
2023-01-17T00:31:10.135Z,19.93
2023-01-17T00:36:13.392Z,18.47
2023-01-17T00:41:16.412Z,19.40
2023-01-17T00:46:38.292Z,19.63
2023-01-17T00:51:59.835Z,17.90
2023-01-17T00:57:21.824Z,18.20
2023-01-17T01:02:44.212Z,17.77
2023-01-17T01:08:05.856Z,17.20
2023-01-17T01:13:27.287Z,17.70
2023-01-17T01:18:48.905Z,18.30
2023-01-17T01:24:10.285Z,18.87
2023-01-17T01:29:31.391Z,17.93
2023-01-17T01:34:34.402Z,18.73
2023-01-17T01:39:37.278Z,17.80
2023-01-17T01:44:52.370Z,18.00
2023-01-17T01:49:55.654Z,17.47
2023-01-17T01:55:02.417Z,17.33
2023-01-17T02:00:11.903Z,16.93
2023-01-17T02:05:15.461Z,18.33
2023-01-17T02:10:18.847Z,15.33
2023-01-17T02:15:27.553Z,16.10
2023-01-17T02:20:33.311Z,15.80
2023-01-17T02:25:57.495Z,16.00
2023-01-17T02:31:08.291Z,15.47
2023-01-17T02:36:30.900Z,16.07
2023-01-17T02:41:41.248Z,14.67
2023-01-17T02:46:47.126Z,15.13
2023-01-17T02:51:59.781Z,14.80
2023-01-17T02:57:30.561Z,16.77
2023-01-17T03:03:12.272Z,15.37
2023-01-17T03:08:15.866Z,14.47
2023-01-17T03:13:18.898Z,14.73
2023-01-17T03:18:22.053Z,15.33
2023-01-17T03:23:25.109Z,15.37
2023-01-17T03:28:28.084Z,15.17
2023-01-17T03:33:30.964Z,14.83
2023-01-17T03:38:34.032Z,14.60
2023-01-17T03:43:37.041Z,15.10
2023-01-17T03:48:41.273Z,14.50
2023-01-17T03:53:45.064Z,14.77
2023-01-17T03:58:48.044Z,13.73
2023-01-17T04:03:51.000Z,13.47
2023-01-17T04:08:53.928Z,14.37
2023-01-17T04:13:57.162Z,13.50
2023-01-17T04:19:00.163Z,14.03
2023-01-17T04:24:03.102Z,13.63
2023-01-17T04:29:06.149Z,13.73
2023-01-17T04:34:09.200Z,13.13
2023-01-17T04:39:14.957Z,13.30
2023-01-17T04:44:18.342Z,13.10
2023-01-17T04:49:21.672Z,12.87
2023-01-17T04:54:24.630Z,12.73
2023-01-17T04:59:27.737Z,13.73
2023-01-17T05:04:30.852Z,12.97
2023-01-17T05:09:34.048Z,12.87
2023-01-17T05:14:37.132Z,12.70
2023-01-17T05:19:40.249Z,12.80
2023-01-17T05:24:44.658Z,13.40
2023-01-17T05:29:47.777Z,13.33
2023-01-17T05:34:51.406Z,13.00
2023-01-17T05:39:54.557Z,13.50
2023-01-17T05:44:57.526Z,12.73
2023-01-17T05:50:00.611Z,11.87
2023-01-17T05:55:04.327Z,12.40
2023-01-17T06:00:08.389Z,12.57
2023-01-17T06:05:11.786Z,13.93
2023-01-17T06:10:16.286Z,14.30
2023-01-17T06:15:19.420Z,13.83
2023-01-17T06:20:22.718Z,12.33
2023-01-17T06:25:25.681Z,12.50
2023-01-17T06:30:29.221Z,11.73
2023-01-17T06:35:32.543Z,12.17
2023-01-17T06:40:35.528Z,13.60
2023-01-17T06:45:38.734Z,13.03
2023-01-17T06:50:41.823Z,13.57
2023-01-17T06:55:44.867Z,14.40
2023-01-17T07:00:48.217Z,15.47
2023-01-17T07:05:51.884Z,13.87
2023-01-17T07:11:02.456Z,15.63
2023-01-17T07:16:06.503Z,14.93
2023-01-17T07:21:16.202Z,15.67
2023-01-17T07:26:19.676Z,16.07
2023-01-17T07:31:22.624Z,18.47
2023-01-17T07:36:25.651Z,17.10
2023-01-17T07:41:31.880Z,17.37
2023-01-17T07:46:41.001Z,17.70
2023-01-17T07:51:44.677Z,17.97
2023-01-17T07:56:47.972Z,18.17
2023-01-17T08:01:51.149Z,19.37
2023-01-17T08:06:55.305Z,20.40
2023-01-17T08:11:58.323Z,22.10
2023-01-17T08:17:12.318Z,22.23
2023-01-17T08:22:15.487Z,23.23
2023-01-17T08:27:18.459Z,22.43
2023-01-17T08:32:21.864Z,23.27
2023-01-17T08:37:24.965Z,23.23
2023-01-17T08:42:28.099Z,22.07
2023-01-17T08:47:32.156Z,22.37
2023-01-17T08:52:35.298Z,21.70
2023-01-17T08:57:38.427Z,22.30
2023-01-17T09:02:41.554Z,22.00
2023-01-17T09:07:44.815Z,23.60
2023-01-17T09:12:47.960Z,24.63
2023-01-17T09:17:51.230Z,23.27
2023-01-17T09:22:54.516Z,22.97
2023-01-17T09:27:57.575Z,22.63
2023-01-17T09:33:01.237Z,22.37
2023-01-17T09:38:04.523Z,22.00
2023-01-17T09:43:19.435Z,22.37
2023-01-17T09:48:32.055Z,25.13
2023-01-17T09:53:37.757Z,24.30
2023-01-17T09:59:05.915Z,31.17
2023-01-17T10:04:18.859Z,26.07
2023-01-17T10:09:34.318Z,22.47
2023-01-17T10:14:37.485Z,22.13
2023-01-17T10:19:46.289Z,20.63
2023-01-17T10:25:20.429Z,25.97
2023-01-17T10:30:28.381Z,23.37
2023-01-17T10:35:34.934Z,25.77
2023-01-17T10:40:50.635Z,22.27
2023-01-17T10:45:55.788Z,24.50
2023-01-17T10:51:26.808Z,29.47
2023-01-17T10:56:30.376Z,23.70
2023-01-17T11:01:33.564Z,27.10
2023-01-17T11:06:53.178Z,26.60
2023-01-17T11:12:00.727Z,22.53
2023-01-17T11:17:05.613Z,22.97
2023-01-17T11:22:14.200Z,19.97
2023-01-17T11:27:25.744Z,19.50
2023-01-17T11:32:33.676Z,28.20
2023-01-17T11:37:37.250Z,29.47
2023-01-17T11:42:40.394Z,20.60
2023-01-17T11:47:43.379Z,23.13
2023-01-17T11:52:46.456Z,24.93
2023-01-17T11:57:50.913Z,19.93
2023-01-17T12:02:56.499Z,16.83
2023-01-17T12:08:21.035Z,16.77
2023-01-17T12:14:00.661Z,17.13
2023-01-17T12:19:43.540Z,17.10
2023-01-17T12:25:12.189Z,16.50
2023-01-17T12:30:24.514Z,15.07
2023-01-17T12:35:44.745Z,17.07
2023-01-17T12:41:03.024Z,19.23
2023-01-17T12:46:13.997Z,17.13
2023-01-17T12:51:24.515Z,15.97
2023-01-17T12:56:36.045Z,14.57
2023-01-17T13:01:43.456Z,14.73
2023-01-17T13:06:52.508Z,14.37
2023-01-17T13:12:00.336Z,15.43
2023-01-17T13:17:34.596Z,15.27
2023-01-17T13:22:39.315Z,12.40
2023-01-17T13:28:06.445Z,16.20
2023-01-17T13:33:22.006Z,14.80
2023-01-17T13:38:34.578Z,13.20
2023-01-17T13:43:40.167Z,11.43
2023-01-17T13:48:43.088Z,10.47
2023-01-17T13:53:47.391Z,11.40
2023-01-17T13:58:58.586Z,11.80
2023-01-17T14:04:04.729Z,12.00
2023-01-17T14:09:22.586Z,10.10
2023-01-17T14:14:42.165Z,10.03
2023-01-17T14:19:48.349Z,11.90
2023-01-17T14:25:12.500Z,12.47
2023-01-17T14:30:27.850Z,14.43
2023-01-17T14:35:34.434Z,12.37
2023-01-17T14:40:38.966Z,15.30
2023-01-17T14:45:42.483Z,67.70
2023-01-17T14:50:47.982Z,13.47
2023-01-17T14:55:53.417Z,12.60
2023-01-17T15:00:59.506Z,11.70
2023-01-17T15:06:11.487Z,10.53
2023-01-17T15:11:21.307Z,10.57
2023-01-17T15:16:34.214Z,9.50
2023-01-17T15:21:40.784Z,9.33
2023-01-17T15:26:44.193Z,27.73
2023-01-17T15:31:51.916Z,9.63
2023-01-17T15:36:58.236Z,10.03
2023-01-17T15:42:04.302Z,7.70
2023-01-17T15:47:35.741Z,7.43
2023-01-17T15:52:51.345Z,7.07
2023-01-17T15:57:55.023Z,6.83
2023-01-17T16:03:00.105Z,7.90
2023-01-17T16:08:03.890Z,7.77
2023-01-17T16:13:09.272Z,8.50
2023-01-17T16:18:18.223Z,9.73
2023-01-17T16:23:21.591Z,9.80
2023-01-17T16:28:24.839Z,8.00
2023-01-17T16:33:27.780Z,8.90
2023-01-17T16:38:32.547Z,11.00
2023-01-17T16:43:36.479Z,9.57
2023-01-17T16:48:39.797Z,9.30
2023-01-17T16:53:43.216Z,13.20
2023-01-17T16:58:46.293Z,12.90
2023-01-17T17:03:49.603Z,8.83
2023-01-17T17:08:52.543Z,12.03
2023-01-17T17:13:55.804Z,20.43
2023-01-17T17:19:05.000Z,13.17
2023-01-17T17:24:10.953Z,10.50
2023-01-17T17:29:14.669Z,8.70
2023-01-17T17:34:17.910Z,6.70
2023-01-17T17:39:20.896Z,7.40
2023-01-17T17:44:24.422Z,6.93
2023-01-17T17:49:27.589Z,8.47
2023-01-17T17:54:30.841Z,7.10
2023-01-17T17:59:34.205Z,6.97
2023-01-17T18:04:37.889Z,23.43
2023-01-17T18:09:41.062Z,22.33
2023-01-17T18:14:47.083Z,12.27
2023-01-17T18:19:50.342Z,9.37
2023-01-17T18:24:53.737Z,7.33
2023-01-17T18:29:56.861Z,11.73
2023-01-17T18:35:01.961Z,9.83
2023-01-17T18:40:05.333Z,4.97
2023-01-17T18:45:08.812Z,5.47
2023-01-17T18:50:11.830Z,4.73
2023-01-17T18:55:15.833Z,4.17
2023-01-17T19:00:20.073Z,5.53
2023-01-17T19:05:24.764Z,4.63
2023-01-17T19:10:27.918Z,9.93
2023-01-17T19:15:31.631Z,7.27
2023-01-17T19:20:35.661Z,6.07
2023-01-17T19:25:38.943Z,14.30
2023-01-17T19:30:42.627Z,7.27
2023-01-17T19:35:45.549Z,6.77
2023-01-17T19:40:48.685Z,5.60
2023-01-17T19:45:57.273Z,8.33
2023-01-17T19:51:08.998Z,6.77
2023-01-17T19:56:20.428Z,8.73
2023-01-17T20:01:27.592Z,11.53
2023-01-17T20:06:34.058Z,8.63
2023-01-17T20:11:37.194Z,4.70
2023-01-17T20:16:40.154Z,4.50
2023-01-17T20:21:43.311Z,5.90
2023-01-17T20:26:46.911Z,5.03
2023-01-17T20:31:52.795Z,7.13
2023-01-17T20:36:58.260Z,10.33
2023-01-17T20:42:01.457Z,10.43
2023-01-17T20:47:04.434Z,11.10
2023-01-17T20:52:07.327Z,14.73
2023-01-17T20:57:10.246Z,4.73
2023-01-17T21:02:13.309Z,5.17
2023-01-17T21:07:16.642Z,5.27
2023-01-17T21:12:21.700Z,5.40
2023-01-17T21:17:24.686Z,5.43
2023-01-17T21:22:29.014Z,7.30
2023-01-17T21:27:32.179Z,5.53
2023-01-17T21:32:35.483Z,4.70
2023-01-17T21:37:38.908Z,6.53
2023-01-17T21:42:41.876Z,7.30
2023-01-17T21:47:45.087Z,7.33
2023-01-17T21:52:48.276Z,6.20
2023-01-17T21:58:09.827Z,6.70
2023-01-17T22:03:12.968Z,5.80
2023-01-17T22:08:15.821Z,5.27
2023-01-17T22:13:19.081Z,5.63
2023-01-17T22:18:22.003Z,5.03
2023-01-17T22:23:25.087Z,4.70
2023-01-17T22:28:30.658Z,5.90
2023-01-17T22:33:33.747Z,6.37
2023-01-17T22:38:36.738Z,5.93
2023-01-17T22:43:42.133Z,5.33
2023-01-17T22:48:45.753Z,5.17
2023-01-17T22:53:51.031Z,5.00
2023-01-17T22:58:54.039Z,5.00
2023-01-17T23:04:01.877Z,5.00
2023-01-17T23:09:08.618Z,9.80
2023-01-17T23:14:20.917Z,6.77
2023-01-17T23:19:25.102Z,9.10
2023-01-17T23:24:28.188Z,10.07
2023-01-17T23:29:31.805Z,7.63
2023-01-17T23:34:35.004Z,8.00
2023-01-17T23:39:38.166Z,6.87
2023-01-17T23:44:41.123Z,7.23
2023-01-17T23:49:48.508Z,8.03
2023-01-17T23:54:51.783Z,7.33
2023-01-17T23:59:54.948Z,11.13
